sensor_id;sensor_type;location;lat;lon;timestamp;pressure;altitude;pressure_sealevel;temperature;humidity
72096;BME280;59968;51.084;16.748;2023-04-30T00:02:05;100415.98;;;11.31;73.41
72096;BME280;59968;51.084;16.748;2023-04-30T00:04:38;100416.09;;;11.32;73.41
72096;BME280;59968;51.084;16.748;2023-04-30T00:07:22;100416.36;;;11.28;73.47
72096;BME280;59968;51.084;16.748;2023-04-30T00:09:56;100422.77;;;11.31;73.38
72096;BME280;59968;51.084;16.748;2023-04-30T00:12:26;100423.48;;;11.31;73.31
72096;BME280;59968;51.084;16.748;2023-04-30T00:15:00;100427.77;;;11.30;73.30
72096;BME280;59968;51.084;16.748;2023-04-30T00:17:37;100425.52;;;11.29;73.22
72096;BME280;59968;51.084;16.748;2023-04-30T00:20:22;100427.58;;;11.27;73.32
72096;BME280;59968;51.084;16.748;2023-04-30T00:23:02;100426.29;;;11.25;73.27
72096;BME280;59968;51.084;16.748;2023-04-30T00:25:31;100427.23;;;11.23;73.26
72096;BME280;59968;51.084;16.748;2023-04-30T00:28:00;100431.17;;;11.22;73.32
72096;BME280;59968;51.084;16.748;2023-04-30T00:30:31;100432.04;;;11.18;73.35
72096;BME280;59968;51.084;16.748;2023-04-30T00:33:03;100429.52;;;11.08;73.68
72096;BME280;59968;51.084;16.748;2023-04-30T00:35:33;100431.81;;;11.04;73.82
72096;BME280;59968;51.084;16.748;2023-04-30T00:38:10;100430.72;;;10.96;73.73
72096;BME280;59968;51.084;16.748;2023-04-30T00:40:52;100438.28;;;10.98;73.68
72096;BME280;59968;51.084;16.748;2023-04-30T00:43:30;100438.42;;;10.97;73.54
72096;BME280;59968;51.084;16.748;2023-04-30T00:46:10;100442.55;;;10.94;73.75
72096;BME280;59968;51.084;16.748;2023-04-30T00:48:48;100447.11;;;10.94;73.84
72096;BME280;59968;51.084;16.748;2023-04-30T00:51:21;100441.73;;;10.91;73.78
72096;BME280;59968;51.084;16.748;2023-04-30T00:53:53;100447.14;;;10.92;73.74
72096;BME280;59968;51.084;16.748;2023-04-30T00:56:36;100450.40;;;10.98;73.42
72096;BME280;59968;51.084;16.748;2023-04-30T00:59:05;100452.81;;;10.98;73.33
72096;BME280;59968;51.084;16.748;2023-04-30T01:01:38;100455.33;;;10.94;73.37
72096;BME280;59968;51.084;16.748;2023-04-30T01:04:15;100458.21;;;10.95;73.16
72096;BME280;59968;51.084;16.748;2023-04-30T01:06:47;100458.08;;;10.93;73.04
72096;BME280;59968;51.084;16.748;2023-04-30T01:09:25;100462.08;;;10.93;73.09
72096;BME280;59968;51.084;16.748;2023-04-30T01:12:12;100465.61;;;10.93;73.18
72096;BME280;59968;51.084;16.748;2023-04-30T01:15:37;100472.01;;;10.92;73.10
72096;BME280;59968;51.084;16.748;2023-04-30T01:18:17;100456.58;;;10.80;72.95
72096;BME280;59968;51.084;16.748;2023-04-30T01:21:08;100469.85;;;10.88;73.00
72096;BME280;59968;51.084;16.748;2023-04-30T01:27:06;100476.85;;;10.80;73.13
72096;BME280;59968;51.084;16.748;2023-04-30T01:29:44;100475.05;;;10.81;72.93
72096;BME280;59968;51.084;16.748;2023-04-30T01:32:20;100478.33;;;10.78;72.83
72096;BME280;59968;51.084;16.748;2023-04-30T01:34:54;100482.21;;;10.74;72.72
72096;BME280;59968;51.084;16.748;2023-04-30T01:37:56;100481.89;;;10.69;72.79
72096;BME280;59968;51.084;16.748;2023-04-30T01:40:35;100481.01;;;10.60;72.68
72096;BME280;59968;51.084;16.748;2023-04-30T01:43:54;100480.98;;;10.53;72.82
72096;BME280;59968;51.084;16.748;2023-04-30T01:46:32;100482.04;;;10.45;72.75
72096;BME280;59968;51.084;16.748;2023-04-30T01:51:52;100483.61;;;10.30;72.79
72096;BME280;59968;51.084;16.748;2023-04-30T01:54:37;100488.13;;;10.26;72.91
72096;BME280;59968;51.084;16.748;2023-04-30T01:57:41;100485.08;;;10.19;72.95
72096;BME280;59968;51.084;16.748;2023-04-30T02:00:13;100485.47;;;10.16;72.80
72096;BME280;59968;51.084;16.748;2023-04-30T02:02:45;100488.79;;;10.14;72.77
72096;BME280;59968;51.084;16.748;2023-04-30T02:05:19;100491.72;;;10.10;72.73
72096;BME280;59968;51.084;16.748;2023-04-30T02:07:54;100493.76;;;9.99;73.02
72096;BME280;59968;51.084;16.748;2023-04-30T02:10:26;100491.14;;;10.00;72.84
72096;BME280;59968;51.084;16.748;2023-04-30T02:12:58;100488.09;;;9.98;72.83
72096;BME280;59968;51.084;16.748;2023-04-30T02:15:35;100489.04;;;9.95;72.72
72096;BME280;59968;51.084;16.748;2023-04-30T02:18:09;100497.14;;;9.89;72.65
72096;BME280;59968;51.084;16.748;2023-04-30T02:20:46;100497.30;;;9.84;72.68
72096;BME280;59968;51.084;16.748;2023-04-30T02:23:23;100502.31;;;9.77;72.61
72096;BME280;59968;51.084;16.748;2023-04-30T02:25:59;100503.42;;;9.68;72.66
72096;BME280;59968;51.084;16.748;2023-04-30T02:28:31;100509.41;;;9.58;72.70
72096;BME280;59968;51.084;16.748;2023-04-30T02:31:08;100513.14;;;9.54;72.66
72096;BME280;59968;51.084;16.748;2023-04-30T02:33:42;100512.99;;;9.50;72.73
72096;BME280;59968;51.084;16.748;2023-04-30T02:36:31;100518.15;;;9.48;72.77
72096;BME280;59968;51.084;16.748;2023-04-30T02:39:06;100522.77;;;9.46;72.85
72096;BME280;59968;51.084;16.748;2023-04-30T02:41:43;100519.54;;;9.42;72.87
72096;BME280;59968;51.084;16.748;2023-04-30T02:44:31;100517.64;;;9.41;72.94
72096;BME280;59968;51.084;16.748;2023-04-30T02:47:05;100518.17;;;9.39;73.01
72096;BME280;59968;51.084;16.748;2023-04-30T02:49:40;100523.93;;;9.39;73.01
72096;BME280;59968;51.084;16.748;2023-04-30T02:52:21;100525.98;;;9.34;72.94
72096;BME280;59968;51.084;16.748;2023-04-30T02:55:04;100528.23;;;9.28;72.77
72096;BME280;59968;51.084;16.748;2023-04-30T02:57:42;100531.35;;;9.20;72.67
72096;BME280;59968;51.084;16.748;2023-04-30T03:00:17;100530.69;;;9.05;72.45
72096;BME280;59968;51.084;16.748;2023-04-30T03:02:53;100537.28;;;8.92;72.69
72096;BME280;59968;51.084;16.748;2023-04-30T03:05:31;100535.79;;;8.79;72.88
72096;BME280;59968;51.084;16.748;2023-04-30T03:08:26;100546.73;;;8.73;73.33
72096;BME280;59968;51.084;16.748;2023-04-30T03:11:05;100548.73;;;8.65;73.66
72096;BME280;59968;51.084;16.748;2023-04-30T03:13:40;100545.18;;;8.60;73.80
72096;BME280;59968;51.084;16.748;2023-04-30T03:16:15;100548.17;;;8.57;73.83
72096;BME280;59968;51.084;16.748;2023-04-30T03:18:51;100552.64;;;8.46;74.21
72096;BME280;59968;51.084;16.748;2023-04-30T03:21:39;100559.05;;;8.45;74.55
72096;BME280;59968;51.084;16.748;2023-04-30T03:24:13;100565.96;;;8.43;74.61
72096;BME280;59968;51.084;16.748;2023-04-30T03:26:58;100566.16;;;8.37;74.75
72096;BME280;59968;51.084;16.748;2023-04-30T03:29:34;100569.67;;;8.36;75.10
72096;BME280;59968;51.084;16.748;2023-04-30T03:32:14;100572.58;;;8.37;75.33
72096;BME280;59968;51.084;16.748;2023-04-30T03:34:57;100580.90;;;8.33;75.97
72096;BME280;59968;51.084;16.748;2023-04-30T03:37:29;100584.27;;;8.38;76.19
72096;BME280;59968;51.084;16.748;2023-04-30T03:40:11;100585.09;;;8.42;76.43
72096;BME280;59968;51.084;16.748;2023-04-30T03:43:13;100585.89;;;8.47;76.60
72096;BME280;59968;51.084;16.748;2023-04-30T03:45:54;100594.30;;;8.43;77.26
72096;BME280;59968;51.084;16.748;2023-04-30T03:48:48;100591.47;;;8.42;77.62
72096;BME280;59968;51.084;16.748;2023-04-30T03:51:45;100594.65;;;8.44;77.63
72096;BME280;59968;51.084;16.748;2023-04-30T03:54:37;100601.83;;;8.47;77.61
72096;BME280;59968;51.084;16.748;2023-04-30T03:57:08;100602.83;;;8.47;77.44
72096;BME280;59968;51.084;16.748;2023-04-30T03:59:39;100611.98;;;8.48;77.76
72096;BME280;59968;51.084;16.748;2023-04-30T04:02:12;100613.95;;;8.52;78.37
72096;BME280;59968;51.084;16.748;2023-04-30T04:04:46;100613.02;;;8.58;78.19
72096;BME280;59968;51.084;16.748;2023-04-30T04:07:35;100620.02;;;8.63;77.55
72096;BME280;59968;51.084;16.748;2023-04-30T04:10:18;100620.52;;;8.68;77.05
72096;BME280;59968;51.084;16.748;2023-04-30T04:12:56;100621.98;;;8.76;76.67
72096;BME280;59968;51.084;16.748;2023-04-30T04:15:33;100630.84;;;8.83;76.51
72096;BME280;59968;51.084;16.748;2023-04-30T04:18:02;100632.14;;;8.87;76.31
72096;BME280;59968;51.084;16.748;2023-04-30T04:20:43;100635.31;;;8.92;76.25
72096;BME280;59968;51.084;16.748;2023-04-30T04:23:12;100640.61;;;8.99;76.06
72096;BME280;59968;51.084;16.748;2023-04-30T04:25:46;100650.58;;;9.08;75.99
72096;BME280;59968;51.084;16.748;2023-04-30T04:28:33;100650.70;;;9.15;75.51
72096;BME280;59968;51.084;16.748;2023-04-30T04:31:10;100652.81;;;9.21;74.92
72096;BME280;59968;51.084;16.748;2023-04-30T04:33:58;100655.61;;;9.28;74.47
72096;BME280;59968;51.084;16.748;2023-04-30T04:36:37;100662.17;;;9.39;74.42
72096;BME280;59968;51.084;16.748;2023-04-30T04:39:32;100666.89;;;9.49;74.28
72096;BME280;59968;51.084;16.748;2023-04-30T04:42:10;100669.40;;;9.56;73.66
72096;BME280;59968;51.084;16.748;2023-04-30T04:45:09;100670.38;;;9.56;73.95
72096;BME280;59968;51.084;16.748;2023-04-30T04:47:52;100672.86;;;9.72;73.47
72096;BME280;59968;51.084;16.748;2023-04-30T04:50:46;100674.64;;;9.88;72.67
72096;BME280;59968;51.084;16.748;2023-04-30T04:53:17;100676.91;;;10.03;72.17
72096;BME280;59968;51.084;16.748;2023-04-30T04:56:06;100670.44;;;10.11;71.57
72096;BME280;59968;51.084;16.748;2023-04-30T04:58:36;100683.15;;;10.31;71.21
72096;BME280;59968;51.084;16.748;2023-04-30T05:01:08;100688.64;;;10.42;70.81
72096;BME280;59968;51.084;16.748;2023-04-30T05:03:45;100694.82;;;10.47;70.38
72096;BME280;59968;51.084;16.748;2023-04-30T05:06:16;100693.83;;;10.45;69.86
72096;BME280;59968;51.084;16.748;2023-04-30T05:08:52;100698.26;;;10.44;70.33
72096;BME280;59968;51.084;16.748;2023-04-30T05:11:29;100702.73;;;10.44;70.36
72096;BME280;59968;51.084;16.748;2023-04-30T05:14:04;100705.08;;;10.45;70.01
72096;BME280;59968;51.084;16.748;2023-04-30T05:16:35;100705.08;;;10.42;69.43
72096;BME280;59968;51.084;16.748;2023-04-30T05:19:14;100705.17;;;10.37;69.20
72096;BME280;59968;51.084;16.748;2023-04-30T05:22:03;100709.20;;;10.39;69.44
72096;BME280;59968;51.084;16.748;2023-04-30T05:27:23;100713.39;;;10.52;69.90
72096;BME280;59968;51.084;16.748;2023-04-30T05:29:58;100717.57;;;10.56;69.87
72096;BME280;59968;51.084;16.748;2023-04-30T05:32:27;100721.45;;;10.65;68.52
72096;BME280;59968;51.084;16.748;2023-04-30T05:35:08;100723.97;;;10.69;68.37
72096;BME280;59968;51.084;16.748;2023-04-30T05:37:44;100723.98;;;10.76;68.34
72096;BME280;59968;51.084;16.748;2023-04-30T05:40:16;100720.01;;;10.80;67.61
72096;BME280;59968;51.084;16.748;2023-04-30T05:42:58;100721.34;;;10.84;67.03
72096;BME280;59968;51.084;16.748;2023-04-30T05:45:44;100719.63;;;10.89;67.62
72096;BME280;59968;51.084;16.748;2023-04-30T05:48:37;100719.67;;;11.03;67.75
72096;BME280;59968;51.084;16.748;2023-04-30T05:51:25;100712.39;;;11.20;67.48
72096;BME280;59968;51.084;16.748;2023-04-30T05:53:58;100716.27;;;11.34;67.12
72096;BME280;59968;51.084;16.748;2023-04-30T05:56:41;100721.02;;;11.42;65.32
72096;BME280;59968;51.084;16.748;2023-04-30T05:59:18;100724.55;;;11.46;66.03
72096;BME280;59968;51.084;16.748;2023-04-30T06:01:46;100726.33;;;11.51;65.74
72096;BME280;59968;51.084;16.748;2023-04-30T06:04:32;100730.54;;;11.62;65.63
72096;BME280;59968;51.084;16.748;2023-04-30T06:07:09;100730.42;;;11.72;64.41
72096;BME280;59968;51.084;16.748;2023-04-30T06:09:43;100732.62;;;11.78;64.65
72096;BME280;59968;51.084;16.748;2023-04-30T06:12:15;100729.40;;;11.87;64.54
72096;BME280;59968;51.084;16.748;2023-04-30T06:14:52;100733.60;;;11.95;64.52
72096;BME280;59968;51.084;16.748;2023-04-30T06:17:33;100728.67;;;11.90;63.40
72096;BME280;59968;51.084;16.748;2023-04-30T06:20:02;100739.34;;;11.85;63.28
72096;BME280;59968;51.084;16.748;2023-04-30T06:22:56;100744.52;;;11.87;63.77
72096;BME280;59968;51.084;16.748;2023-04-30T06:25:40;100747.27;;;12.00;64.55
72096;BME280;59968;51.084;16.748;2023-04-30T06:28:17;100751.66;;;12.04;64.02
72096;BME280;59968;51.084;16.748;2023-04-30T06:30:51;100749.92;;;12.06;62.91
72096;BME280;59968;51.084;16.748;2023-04-30T06:33:27;100749.84;;;12.02;62.81
72096;BME280;59968;51.084;16.748;2023-04-30T06:35:59;100749.69;;;12.03;64.22
72096;BME280;59968;51.084;16.748;2023-04-30T06:38:41;100750.34;;;12.17;64.34
72096;BME280;59968;51.084;16.748;2023-04-30T06:41:11;100753.30;;;12.32;63.92
72096;BME280;59968;51.084;16.748;2023-04-30T06:43:55;100750.73;;;12.50;63.33
72096;BME280;59968;51.084;16.748;2023-04-30T06:46:34;100750.45;;;12.62;62.76
72096;BME280;59968;51.084;16.748;2023-04-30T06:49:09;100749.42;;;12.70;63.36
72096;BME280;59968;51.084;16.748;2023-04-30T06:51:44;100751.10;;;12.83;62.48
72096;BME280;59968;51.084;16.748;2023-04-30T06:54:25;100753.15;;;12.86;62.41
72096;BME280;59968;51.084;16.748;2023-04-30T06:56:58;100751.90;;;12.86;61.75
72096;BME280;59968;51.084;16.748;2023-04-30T06:59:30;100756.46;;;12.81;61.85
72096;BME280;59968;51.084;16.748;2023-04-30T07:02:13;100755.13;;;12.89;61.57
72096;BME280;59968;51.084;16.748;2023-04-30T07:04:42;100750.08;;;12.87;60.44
72096;BME280;59968;51.084;16.748;2023-04-30T07:07:14;100755.31;;;12.94;60.80
72096;BME280;59968;51.084;16.748;2023-04-30T07:09:49;100758.55;;;12.93;61.42
72096;BME280;59968;51.084;16.748;2023-04-30T07:12:45;100760.24;;;13.12;61.28
72096;BME280;59968;51.084;16.748;2023-04-30T07:15:23;100767.54;;;13.25;60.12
72096;BME280;59968;51.084;16.748;2023-04-30T07:18:12;100767.69;;;13.32;60.13
72096;BME280;59968;51.084;16.748;2023-04-30T07:20:41;100764.52;;;13.42;59.30
72096;BME280;59968;51.084;16.748;2023-04-30T07:23:18;100769.05;;;13.42;57.96
72096;BME280;59968;51.084;16.748;2023-04-30T07:25:47;100772.76;;;13.47;59.96
72096;BME280;59968;51.084;16.748;2023-04-30T07:28:16;100774.91;;;13.64;59.22
72096;BME280;59968;51.084;16.748;2023-04-30T07:30:56;100774.89;;;13.67;57.65
72096;BME280;59968;51.084;16.748;2023-04-30T07:33:25;100777.95;;;13.63;57.46
72096;BME280;59968;51.084;16.748;2023-04-30T07:35:54;100780.21;;;13.69;58.26
72096;BME280;59968;51.084;16.748;2023-04-30T07:38:34;100778.23;;;13.77;58.54
72096;BME280;59968;51.084;16.748;2023-04-30T07:41:05;100780.54;;;13.85;57.83
72096;BME280;59968;51.084;16.748;2023-04-30T07:43:47;100781.02;;;13.85;58.14
72096;BME280;59968;51.084;16.748;2023-04-30T07:46:32;100786.07;;;13.89;58.32
72096;BME280;59968;51.084;16.748;2023-04-30T07:49:05;100789.81;;;13.77;58.25
72096;BME280;59968;51.084;16.748;2023-04-30T07:51:48;100790.61;;;13.74;58.98
72096;BME280;59968;51.084;16.748;2023-04-30T07:54:40;100793.86;;;13.96;58.69
72096;BME280;59968;51.084;16.748;2023-04-30T07:57:08;100797.90;;;14.11;57.94
72096;BME280;59968;51.084;16.748;2023-04-30T07:59:42;100793.91;;;14.04;57.20
72096;BME280;59968;51.084;16.748;2023-04-30T08:02:12;100800.35;;;14.06;56.86
72096;BME280;59968;51.084;16.748;2023-04-30T08:04:44;100799.46;;;14.11;56.51
72096;BME280;59968;51.084;16.748;2023-04-30T08:07:17;100798.63;;;14.27;57.10
72096;BME280;59968;51.084;16.748;2023-04-30T08:09:51;100796.82;;;14.39;55.20
72096;BME280;59968;51.084;16.748;2023-04-30T08:12:23;100801.47;;;14.37;55.08
72096;BME280;59968;51.084;16.748;2023-04-30T08:15:02;100802.47;;;14.35;55.52
72096;BME280;59968;51.084;16.748;2023-04-30T08:17:38;100802.59;;;14.38;56.18
72096;BME280;59968;51.084;16.748;2023-04-30T08:20:07;100797.80;;;14.53;55.61
72096;BME280;59968;51.084;16.748;2023-04-30T08:22:36;100795.44;;;14.55;54.06
72096;BME280;59968;51.084;16.748;2023-04-30T08:25:14;100796.83;;;14.64;55.66
72096;BME280;59968;51.084;16.748;2023-04-30T08:27:43;100795.08;;;14.79;54.62
72096;BME280;59968;51.084;16.748;2023-04-30T08:30:12;100795.77;;;14.83;52.71
72096;BME280;59968;51.084;16.748;2023-04-30T08:32:44;100794.73;;;14.82;53.74
72096;BME280;59968;51.084;16.748;2023-04-30T08:35:13;100795.98;;;14.65;51.95
72096;BME280;59968;51.084;16.748;2023-04-30T08:37:47;100805.73;;;14.40;52.65
72096;BME280;59968;51.084;16.748;2023-04-30T08:40:22;100806.21;;;14.40;53.70
72096;BME280;59968;51.084;16.748;2023-04-30T08:43:14;100802.23;;;14.48;53.16
72096;BME280;59968;51.084;16.748;2023-04-30T08:45:43;100796.80;;;14.55;53.89
72096;BME280;59968;51.084;16.748;2023-04-30T08:48:15;100803.91;;;14.53;53.88
72096;BME280;59968;51.084;16.748;2023-04-30T08:50:46;100802.54;;;14.54;50.94
72096;BME280;59968;51.084;16.748;2023-04-30T08:53:16;100805.55;;;14.56;50.87
72096;BME280;59968;51.084;16.748;2023-04-30T08:55:45;100803.22;;;14.60;50.66
72096;BME280;59968;51.084;16.748;2023-04-30T08:58:14;100803.86;;;14.49;51.58
72096;BME280;59968;51.084;16.748;2023-04-30T09:00:45;100799.46;;;14.48;53.83
72096;BME280;59968;51.084;16.748;2023-04-30T09:03:14;100806.14;;;14.62;53.14
72096;BME280;59968;51.084;16.748;2023-04-30T09:05:43;100802.16;;;14.68;49.85
72096;BME280;59968;51.084;16.748;2023-04-30T09:08:17;100803.05;;;14.67;50.37
72096;BME280;59968;51.084;16.748;2023-04-30T09:10:53;100810.33;;;14.85;51.52
72096;BME280;59968;51.084;16.748;2023-04-30T09:13:39;100804.63;;;15.00;49.88
72096;BME280;59968;51.084;16.748;2023-04-30T09:16:08;100806.61;;;15.19;50.36
72096;BME280;59968;51.084;16.748;2023-04-30T09:18:40;100811.15;;;15.30;50.71
72096;BME280;59968;51.084;16.748;2023-04-30T09:21:12;100801.09;;;15.36;47.95
72096;BME280;59968;51.084;16.748;2023-04-30T09:24:06;100815.54;;;15.54;47.05
72096;BME280;59968;51.084;16.748;2023-04-30T09:26:37;100815.02;;;15.64;47.10
72096;BME280;59968;51.084;16.748;2023-04-30T09:29:06;100817.34;;;15.66;46.82
72096;BME280;59968;51.084;16.748;2023-04-30T09:31:37;100812.98;;;15.76;47.16
72096;BME280;59968;51.084;16.748;2023-04-30T09:34:06;100812.16;;;15.90;45.95
72096;BME280;59968;51.084;16.748;2023-04-30T09:36:57;100810.04;;;15.95;44.84
72096;BME280;59968;51.084;16.748;2023-04-30T09:39:24;100815.20;;;16.07;46.13
72096;BME280;59968;51.084;16.748;2023-04-30T09:42:06;100817.36;;;16.17;45.78
72096;BME280;59968;51.084;16.748;2023-04-30T09:44:39;100819.02;;;16.27;47.90
72096;BME280;59968;51.084;16.748;2023-04-30T09:47:19;100818.23;;;16.33;44.25
72096;BME280;59968;51.084;16.748;2023-04-30T09:49:51;100815.83;;;16.30;42.83
72096;BME280;59968;51.084;16.748;2023-04-30T09:52:23;100820.85;;;16.22;42.69
72096;BME280;59968;51.084;16.748;2023-04-30T09:54:52;100814.73;;;16.20;44.13
72096;BME280;59968;51.084;16.748;2023-04-30T09:57:23;100812.50;;;16.23;43.20
72096;BME280;59968;51.084;16.748;2023-04-30T09:59:55;100816.02;;;16.26;43.57
72096;BME280;59968;51.084;16.748;2023-04-30T10:02:26;100814.36;;;16.28;42.70
72096;BME280;59968;51.084;16.748;2023-04-30T10:04:57;100809.98;;;16.31;43.34
72096;BME280;59968;51.084;16.748;2023-04-30T10:07:33;100812.09;;;16.34;43.21
72096;BME280;59968;51.084;16.748;2023-04-30T10:10:07;100804.77;;;16.34;42.07
72096;BME280;59968;51.084;16.748;2023-04-30T10:12:50;100797.15;;;16.29;42.06
72096;BME280;59968;51.084;16.748;2023-04-30T10:15:24;100799.77;;;16.22;41.46
72096;BME280;59968;51.084;16.748;2023-04-30T10:17:59;100802.23;;;16.13;42.47
72096;BME280;59968;51.084;16.748;2023-04-30T10:20:34;100801.09;;;16.04;42.63
72096;BME280;59968;51.084;16.748;2023-04-30T10:23:24;100798.89;;;16.08;42.68
72096;BME280;59968;51.084;16.748;2023-04-30T10:25:53;100799.17;;;16.12;42.74
72096;BME280;59968;51.084;16.748;2023-04-30T10:28:23;100799.70;;;16.22;43.89
72096;BME280;59968;51.084;16.748;2023-04-30T10:30:55;100798.66;;;16.32;42.82
72096;BME280;59968;51.084;16.748;2023-04-30T10:33:34;100797.80;;;16.39;43.75
72096;BME280;59968;51.084;16.748;2023-04-30T10:36:07;100797.09;;;16.49;42.20
72096;BME280;59968;51.084;16.748;2023-04-30T10:38:41;100785.09;;;16.51;41.16
72096;BME280;59968;51.084;16.748;2023-04-30T10:41:09;100788.61;;;16.55;41.77
72096;BME280;59968;51.084;16.748;2023-04-30T10:43:38;100790.34;;;16.55;41.24
72096;BME280;59968;51.084;16.748;2023-04-30T10:46:07;100785.00;;;16.52;41.76
72096;BME280;59968;51.084;16.748;2023-04-30T10:48:39;100782.46;;;16.57;44.54
72096;BME280;59968;51.084;16.748;2023-04-30T10:51:07;100772.73;;;16.64;43.01
72096;BME280;59968;51.084;16.748;2023-04-30T10:53:36;100780.48;;;16.78;41.92
72096;BME280;59968;51.084;16.748;2023-04-30T10:56:07;100780.33;;;16.82;41.90
72096;BME280;59968;51.084;16.748;2023-04-30T10:58:42;100780.63;;;16.76;41.99
72096;BME280;59968;51.084;16.748;2023-04-30T11:01:15;100781.52;;;16.75;43.07
72096;BME280;59968;51.084;16.748;2023-04-30T11:04:07;100778.43;;;16.78;43.68
72096;BME280;59968;51.084;16.748;2023-04-30T11:09:35;100778.31;;;16.89;42.51
72096;BME280;59968;51.084;16.748;2023-04-30T11:14:41;100777.02;;;16.89;40.66
72096;BME280;59968;51.084;16.748;2023-04-30T11:17:23;100776.55;;;16.91;39.65
72096;BME280;59968;51.084;16.748;2023-04-30T11:19:53;100777.56;;;16.95;41.31
72096;BME280;59968;51.084;16.748;2023-04-30T11:22:27;100773.03;;;17.07;41.74
72096;BME280;59968;51.084;16.748;2023-04-30T11:25:10;100769.65;;;17.10;42.66
72096;BME280;59968;51.084;16.748;2023-04-30T11:27:43;100774.81;;;17.16;41.12
72096;BME280;59968;51.084;16.748;2023-04-30T11:30:14;100772.94;;;17.19;41.52
72096;BME280;59968;51.084;16.748;2023-04-30T11:32:45;100775.04;;;17.24;42.29
72096;BME280;59968;51.084;16.748;2023-04-30T11:35:17;100773.45;;;17.26;40.59
72096;BME280;59968;51.084;16.748;2023-04-30T11:37:47;100774.34;;;17.22;41.10
72096;BME280;59968;51.084;16.748;2023-04-30T11:40:16;100775.99;;;17.19;41.05
72096;BME280;59968;51.084;16.748;2023-04-30T11:42:46;100775.33;;;17.24;41.45
72096;BME280;59968;51.084;16.748;2023-04-30T11:45:16;100777.33;;;17.32;40.65
72096;BME280;59968;51.084;16.748;2023-04-30T11:47:50;100776.07;;;17.35;40.96
72096;BME280;59968;51.084;16.748;2023-04-30T11:50:20;100765.96;;;17.30;39.82
72096;BME280;59968;51.084;16.748;2023-04-30T11:52:58;100771.83;;;17.26;39.06
72096;BME280;59968;51.084;16.748;2023-04-30T11:55:33;100770.27;;;17.19;40.13
72096;BME280;59968;51.084;16.748;2023-04-30T11:58:01;100764.87;;;17.21;39.79
72096;BME280;59968;51.084;16.748;2023-04-30T12:00:34;100764.77;;;17.25;39.93
72096;BME280;59968;51.084;16.748;2023-04-30T12:03:03;100765.73;;;17.24;39.18
72096;BME280;59968;51.084;16.748;2023-04-30T12:05:34;100764.20;;;17.22;39.17
72096;BME280;59968;51.084;16.748;2023-04-30T12:08:06;100763.98;;;17.27;39.39
72096;BME280;59968;51.084;16.748;2023-04-30T12:10:36;100762.77;;;17.34;38.73
72096;BME280;59968;51.084;16.748;2023-04-30T12:13:04;100761.59;;;17.31;38.57
72096;BME280;59968;51.084;16.748;2023-04-30T12:15:33;100760.96;;;17.33;39.22
72096;BME280;59968;51.084;16.748;2023-04-30T12:18:11;100764.77;;;17.36;39.37
72096;BME280;59968;51.084;16.748;2023-04-30T12:20:41;100770.92;;;17.45;39.03
72096;BME280;59968;51.084;16.748;2023-04-30T12:23:10;100766.48;;;17.48;37.98
72096;BME280;59968;51.084;16.748;2023-04-30T12:25:41;100765.78;;;17.51;38.52
72096;BME280;59968;51.084;16.748;2023-04-30T12:28:11;100768.52;;;17.51;37.10
72096;BME280;59968;51.084;16.748;2023-04-30T12:30:41;100766.20;;;17.49;37.88
72096;BME280;59968;51.084;16.748;2023-04-30T12:35:46;100763.85;;;17.43;37.63
72096;BME280;59968;51.084;16.748;2023-04-30T12:38:16;100768.02;;;17.42;37.06
72096;BME280;59968;51.084;16.748;2023-04-30T12:40:48;100765.54;;;17.41;37.85
72096;BME280;59968;51.084;16.748;2023-04-30T12:43:17;100765.81;;;17.42;37.35
72096;BME280;59968;51.084;16.748;2023-04-30T12:48:19;100769.34;;;17.54;36.81
72096;BME280;59968;51.084;16.748;2023-04-30T12:51:00;100762.30;;;17.57;35.82
72096;BME280;59968;51.084;16.748;2023-04-30T12:53:30;100755.12;;;17.62;36.46
72096;BME280;59968;51.084;16.748;2023-04-30T12:56:16;100758.38;;;17.62;34.77
72096;BME280;59968;51.084;16.748;2023-04-30T12:58:46;100756.99;;;17.51;35.38
72096;BME280;59968;51.084;16.748;2023-04-30T13:01:19;100760.08;;;17.42;35.19
72096;BME280;59968;51.084;16.748;2023-04-30T13:03:49;100756.00;;;17.40;34.37
72096;BME280;59968;51.084;16.748;2023-04-30T13:06:20;100751.02;;;17.34;34.89
72096;BME280;59968;51.084;16.748;2023-04-30T13:08:50;100753.78;;;17.39;36.06
72096;BME280;59968;51.084;16.748;2023-04-30T13:11:25;100754.40;;;17.56;35.42
72096;BME280;59968;51.084;16.748;2023-04-30T13:13:54;100753.69;;;17.63;35.48
72096;BME280;59968;51.084;16.748;2023-04-30T13:16:23;100752.98;;;17.70;35.53
72096;BME280;59968;51.084;16.748;2023-04-30T13:18:53;100745.35;;;17.73;35.23
72096;BME280;59968;51.084;16.748;2023-04-30T13:21:22;100742.05;;;17.81;35.49
72096;BME280;59968;51.084;16.748;2023-04-30T13:23:54;100740.15;;;17.80;35.14
72096;BME280;59968;51.084;16.748;2023-04-30T13:26:27;100745.59;;;17.73;35.51
72096;BME280;59968;51.084;16.748;2023-04-30T13:28:55;100742.06;;;17.66;35.25
72096;BME280;59968;51.084;16.748;2023-04-30T13:31:24;100742.14;;;17.67;35.52
72096;BME280;59968;51.084;16.748;2023-04-30T13:33:53;100735.66;;;17.70;36.63
72096;BME280;59968;51.084;16.748;2023-04-30T13:36:21;100742.89;;;17.76;36.46
72096;BME280;59968;51.084;16.748;2023-04-30T13:38:50;100739.42;;;17.78;36.01
72096;BME280;59968;51.084;16.748;2023-04-30T13:41:18;100738.38;;;17.80;35.58
72096;BME280;59968;51.084;16.748;2023-04-30T13:43:49;100738.92;;;17.85;35.39
72096;BME280;59968;51.084;16.748;2023-04-30T13:46:17;100733.08;;;17.89;34.77
72096;BME280;59968;51.084;16.748;2023-04-30T13:48:46;100732.45;;;17.80;34.91